createdAt,value
2022-08-17T00:00:43.678Z,960.1500
2022-08-17T00:01:51.357Z,960.1500
2022-08-17T00:02:41.021Z,960.1700
2022-08-17T00:03:38.083Z,960.1700
2022-08-17T00:04:40.378Z,960.1500
2022-08-17T00:05:42.595Z,960.1700
2022-08-17T00:06:44.843Z,960.1700
2022-08-17T00:07:47.083Z,960.1500
2022-08-17T00:08:49.362Z,960.1500
2022-08-17T00:09:51.613Z,960.1500
2022-08-17T00:10:53.815Z,960.1700
2022-08-17T00:12:41.577Z,960.1700
2022-08-17T00:12:58.400Z,960.1300
2022-08-17T00:14:00.724Z,960.1300
2022-08-17T00:15:03.016Z,960.1500
2022-08-17T00:16:03.176Z,960.1500
2022-08-17T00:17:05.494Z,960.1700
2022-08-17T00:19:06.072Z,960.1300
2022-08-17T00:19:10.085Z,960.1700
2022-08-17T00:20:12.422Z,960.1500
2022-08-17T00:21:14.666Z,960.1500
2022-08-17T00:22:34.399Z,960.1300
2022-08-17T00:23:17.142Z,960.1000
2022-08-17T00:24:19.464Z,960.0800
2022-08-17T00:25:21.834Z,960.0800
2022-08-17T00:26:43.701Z,960.0400
2022-08-17T00:27:26.422Z,960.0000
2022-08-17T00:28:28.724Z,959.9800
2022-08-17T00:29:28.888Z,960.0200
2022-08-17T00:30:31.159Z,960.0200
2022-08-17T00:31:33.404Z,960.0400
2022-08-17T00:33:15.855Z,960.0600
2022-08-17T00:33:37.951Z,960.0400
2022-08-17T00:34:40.260Z,960.0400
2022-08-17T00:35:42.550Z,960.0400
2022-08-17T00:36:42.642Z,960.0400
2022-08-17T00:37:44.940Z,960.0200
2022-08-17T00:38:47.190Z,960.0400
2022-08-17T00:39:49.544Z,960.0400
2022-08-17T00:40:51.951Z,960.0200
2022-08-17T00:41:56.227Z,960.0200
2022-08-17T00:42:56.372Z,960.0000
2022-08-17T00:43:58.662Z,959.9600
2022-08-17T00:44:58.824Z,959.9400
2022-08-17T00:46:01.170Z,959.9600
2022-08-17T00:47:01.293Z,959.9600
2022-08-17T00:48:03.589Z,959.9800
2022-08-17T00:49:05.844Z,959.9800
2022-08-17T00:50:08.142Z,960.0000
2022-08-17T00:51:10.495Z,959.9800
2022-08-17T00:52:12.763Z,960.0000
2022-08-17T00:53:14.978Z,959.9800
2022-08-17T00:54:15.141Z,959.9600
2022-08-17T00:55:17.346Z,959.9200
2022-08-17T00:56:19.684Z,959.9200
2022-08-17T00:57:21.965Z,959.9200
2022-08-17T00:58:28.781Z,959.9000
2022-08-17T00:59:26.419Z,959.9000
2022-08-17T01:00:28.632Z,959.8800
2022-08-17T01:01:31.072Z,959.8600
2022-08-17T01:02:34.310Z,959.8600
2022-08-17T01:03:33.437Z,959.8600
2022-08-17T01:04:35.729Z,959.8800
2022-08-17T01:05:38.059Z,959.8800
2022-08-17T01:06:40.363Z,959.8400
2022-08-17T01:07:42.596Z,959.8600
2022-08-17T01:08:44.911Z,959.8600
2022-08-17T01:09:45.074Z,959.8800
2022-08-17T01:10:57.386Z,959.8200
2022-08-17T01:11:49.746Z,959.8000
2022-08-17T01:12:52.010Z,959.7800
2022-08-17T01:13:54.316Z,959.8200
2022-08-17T01:14:56.616Z,959.8400
2022-08-17T01:15:58.865Z,959.8600
2022-08-17T01:16:59.026Z,959.9000
2022-08-17T01:18:01.244Z,959.9000
2022-08-17T01:19:03.502Z,959.9000
2022-08-17T01:20:05.819Z,959.9200
2022-08-17T01:21:08.031Z,959.9200
2022-08-17T01:22:10.336Z,959.9000
2022-08-17T01:23:12.582Z,959.9000
2022-08-17T01:24:12.712Z,959.9200
2022-08-17T01:25:14.973Z,959.9200
2022-08-17T01:26:17.210Z,959.9600
2022-08-17T01:27:20.585Z,959.9400
2022-08-17T01:28:53.123Z,959.9600
2022-08-17T01:29:23.891Z,959.9400
2022-08-17T01:30:56.785Z,959.9400
2022-08-17T01:32:20.093Z,959.9400
2022-08-17T01:33:22.238Z,959.9800
2022-08-17T01:34:24.459Z,960.0200
2022-08-17T01:35:26.668Z,960.0200
2022-08-17T01:36:28.930Z,960.0000
2022-08-17T01:37:31.214Z,960.0200
2022-08-17T01:38:33.449Z,960.0600
2022-08-17T01:39:35.762Z,960.0800
2022-08-17T01:40:37.917Z,960.1000
2022-08-17T01:41:40.157Z,960.1000
2022-08-17T01:42:42.447Z,960.1200
2022-08-17T01:43:44.657Z,960.1200
2022-08-17T01:44:44.796Z,960.1200
2022-08-17T01:45:47.084Z,960.1300
2022-08-17T01:46:49.367Z,960.1000
2022-08-17T01:47:51.673Z,960.1000
2022-08-17T01:48:53.914Z,960.1200
2022-08-17T01:49:56.183Z,960.1200
2022-08-17T01:50:58.470Z,960.1300
2022-08-17T01:51:58.610Z,960.1700
2022-08-17T01:53:00.957Z,960.2100
2022-08-17T01:54:03.207Z,960.2500
2022-08-17T01:55:05.510Z,960.3100
2022-08-17T01:56:07.820Z,960.3500
2022-08-17T01:57:10.122Z,960.4500
2022-08-17T01:58:12.463Z,960.5100
2022-08-17T01:59:12.603Z,960.5500
2022-08-17T02:00:14.912Z,960.5900
2022-08-17T02:01:17.249Z,960.6200
2022-08-17T02:02:31.021Z,960.6400
2022-08-17T02:03:19.711Z,960.6400
2022-08-17T02:04:21.978Z,960.6400
2022-08-17T02:05:24.270Z,960.6400
2022-08-17T02:06:27.802Z,960.6600
2022-08-17T02:07:28.833Z,960.6200
2022-08-17T02:08:38.713Z,960.6400
2022-08-17T02:09:34.397Z,960.6400
2022-08-17T02:10:36.630Z,960.6400
2022-08-17T02:11:37.835Z,960.6600
2022-08-17T02:12:40.085Z,960.6800
2022-08-17T02:13:42.408Z,960.7800
2022-08-17T02:14:44.708Z,960.8200
2022-08-17T02:15:46.999Z,960.8200
2022-08-17T02:16:47.160Z,960.8000
2022-08-17T02:17:49.471Z,960.8200
2022-08-17T02:18:51.804Z,960.8000
2022-08-17T02:19:54.063Z,960.8200
2022-08-17T02:20:56.355Z,960.8000
2022-08-17T02:21:58.661Z,960.8000
2022-08-17T02:23:00.915Z,960.8000
2022-08-17T02:24:03.219Z,960.8200
2022-08-17T02:25:03.236Z,960.8200
2022-08-17T02:26:05.489Z,960.8400
2022-08-17T02:27:07.737Z,960.8800
2022-08-17T02:28:09.991Z,960.9000
2022-08-17T02:29:12.257Z,960.9600
2022-08-17T02:31:01.582Z,960.9600
2022-08-17T02:31:16.700Z,961.0000
2022-08-17T02:32:25.473Z,960.9800
2022-08-17T02:33:21.283Z,961.0000
2022-08-17T02:34:21.465Z,960.9600
2022-08-17T02:35:23.668Z,960.9600
2022-08-17T02:36:27.541Z,960.9000
2022-08-17T02:37:28.274Z,960.9200
2022-08-17T02:38:30.574Z,960.9000
2022-08-17T02:39:32.958Z,960.8800
2022-08-17T02:40:36.343Z,960.8600
2022-08-17T02:41:37.394Z,960.8600
2022-08-17T02:42:37.536Z,960.8600
2022-08-17T02:43:39.850Z,960.9000
2022-08-17T02:44:42.169Z,960.9200
2022-08-17T02:45:44.469Z,960.9400
2022-08-17T02:46:46.769Z,960.9800
2022-08-17T02:47:49.109Z,961.0400
2022-08-17T02:48:51.365Z,961.0700
2022-08-17T02:49:55.611Z,961.1300
2022-08-17T02:50:55.863Z,961.1700
2022-08-17T02:51:58.134Z,961.1300
2022-08-17T02:53:02.492Z,961.1300
2022-08-17T02:54:05.316Z,961.1700
2022-08-17T02:55:04.995Z,961.1700
2022-08-17T02:56:07.221Z,961.1300
2022-08-17T02:57:07.346Z,961.1900
2022-08-17T02:58:09.648Z,961.1900
2022-08-17T02:59:11.939Z,961.1700
2022-08-17T03:00:14.256Z,961.1500
2022-08-17T03:01:16.627Z,961.0900
2022-08-17T03:02:18.838Z,961.1500
2022-08-17T03:03:21.127Z,961.1300
2022-08-17T03:04:21.234Z,961.0700
2022-08-17T03:05:23.535Z,961.0600
2022-08-17T03:06:25.805Z,961.0600
2022-08-17T03:07:28.101Z,961.0400
2022-08-17T03:08:30.402Z,961.0400
2022-08-17T03:09:32.747Z,961.0400
2022-08-17T03:10:32.982Z,961.0200
2022-08-17T03:11:35.312Z,961.0200
2022-08-17T03:12:37.638Z,961.0400
2022-08-17T03:13:39.925Z,961.0700
2022-08-17T03:14:42.236Z,961.0600
2022-08-17T03:15:44.615Z,961.0700
2022-08-17T03:16:44.772Z,961.0700
2022-08-17T03:17:47.099Z,961.0900
2022-08-17T03:18:49.392Z,961.0700
2022-08-17T03:19:51.698Z,961.0600
2022-08-17T03:20:54.205Z,961.0700
2022-08-17T03:21:55.299Z,961.0600
2022-08-17T03:23:02.750Z,961.0400
2022-08-17T03:23:58.570Z,961.0400
2022-08-17T03:25:00.807Z,961.0600
2022-08-17T03:26:03.123Z,961.0400
2022-08-17T03:27:05.343Z,961.0700
2022-08-17T03:28:07.624Z,961.1300
2022-08-17T03:29:09.915Z,961.1700
2022-08-17T03:30:12.202Z,961.2100
2022-08-17T03:31:12.396Z,961.2100
2022-08-17T03:32:14.671Z,961.2100
2022-08-17T03:33:17.087Z,961.2300
2022-08-17T03:34:19.256Z,961.2500
2022-08-17T03:35:58.086Z,961.2700
2022-08-17T03:36:59.201Z,961.2300
2022-08-17T03:38:01.298Z,961.2500
2022-08-17T03:39:02.669Z,961.1900
2022-08-17T03:40:05.171Z,961.1700
2022-08-17T03:41:07.218Z,961.1500
2022-08-17T03:43:26.889Z,961.1700
2022-08-17T03:44:29.050Z,961.1700
2022-08-17T03:45:31.304Z,961.1700
2022-08-17T03:46:35.184Z,961.1500
2022-08-17T03:47:33.705Z,961.1500
2022-08-17T03:48:36.012Z,961.1500
2022-08-17T03:49:38.273Z,961.1500
2022-08-17T03:50:40.557Z,961.1500
2022-08-17T03:51:42.847Z,961.1500
2022-08-17T03:52:45.135Z,961.1100
2022-08-17T03:53:45.306Z,961.1300
2022-08-17T03:54:47.526Z,961.1100
2022-08-17T03:55:49.792Z,961.1300
2022-08-17T03:56:52.043Z,961.1700
2022-08-17T03:57:54.228Z,961.1500
2022-08-17T03:58:56.483Z,961.1700
2022-08-17T03:59:58.669Z,961.1500
2022-08-17T04:01:00.939Z,961.1500
2022-08-17T04:02:03.108Z,961.1700
2022-08-17T04:03:05.325Z,961.1900
2022-08-17T04:04:05.446Z,961.2100
2022-08-17T04:05:07.698Z,961.2700
2022-08-17T04:06:09.977Z,961.2700
2022-08-17T04:07:12.222Z,961.2500
2022-08-17T04:08:14.478Z,961.2500
2022-08-17T04:09:16.741Z,961.2700
2022-08-17T04:10:18.970Z,961.2700
2022-08-17T04:11:21.242Z,961.2500
2022-08-17T04:12:23.522Z,961.2100
2022-08-17T04:13:24.762Z,961.2100
2022-08-17T04:14:25.866Z,961.1900
2022-08-17T04:15:28.100Z,961.1700
2022-08-17T04:16:30.373Z,961.1500
2022-08-17T04:17:32.663Z,961.1500
2022-08-17T04:18:34.876Z,961.1300
2022-08-17T04:19:37.163Z,961.1900
2022-08-17T04:20:39.311Z,961.2300
2022-08-17T04:21:41.501Z,961.2900
2022-08-17T04:22:43.697Z,961.3300
2022-08-17T04:23:45.917Z,961.3500
2022-08-17T04:24:45.966Z,961.3900
2022-08-17T04:25:48.141Z,961.3700
2022-08-17T04:26:54.119Z,961.3700
2022-08-17T04:27:52.567Z,961.3700
2022-08-17T04:28:54.770Z,961.3500
2022-08-17T04:29:57.025Z,961.3700
2022-08-17T04:30:59.182Z,961.3700
2022-08-17T04:32:01.409Z,961.3500
2022-08-17T04:33:10.683Z,961.3300
2022-08-17T04:34:05.863Z,961.3300
2022-08-17T04:35:08.079Z,961.3300
2022-08-17T04:36:10.258Z,961.3700
2022-08-17T04:37:12.547Z,961.3300
2022-08-17T04:38:14.808Z,961.3900
2022-08-17T04:39:14.977Z,961.4100
2022-08-17T04:40:17.377Z,961.4500
2022-08-17T04:41:19.534Z,961.4700
2022-08-17T04:42:21.829Z,961.5100
2022-08-17T04:43:24.108Z,961.5300
2022-08-17T04:44:36.788Z,961.5600
2022-08-17T04:45:26.487Z,961.5800
2022-08-17T04:46:28.748Z,961.5600
2022-08-17T04:47:31.044Z,961.5300
2022-08-17T04:48:36.848Z,961.5100
2022-08-17T04:49:33.459Z,961.5100
2022-08-17T04:50:35.773Z,961.5300
2022-08-17T04:51:35.912Z,961.5400
2022-08-17T04:52:43.223Z,961.6000
2022-08-17T04:53:38.332Z,961.6600
2022-08-17T04:54:40.568Z,961.7200
2022-08-17T04:55:42.834Z,961.7400
2022-08-17T04:56:42.956Z,961.7400
2022-08-17T04:57:45.347Z,961.7400
2022-08-17T04:58:45.368Z,961.7600
2022-08-17T04:59:47.693Z,961.7600
2022-08-17T05:00:50.085Z,961.7800
2022-08-17T05:01:52.278Z,961.8200
2022-08-17T05:02:52.693Z,961.8400
2022-08-17T05:03:54.739Z,961.8200
2022-08-17T05:04:56.998Z,961.8400
2022-08-17T05:05:59.328Z,961.8400
2022-08-17T05:07:01.584Z,961.8200
2022-08-17T05:08:03.869Z,961.8000
2022-08-17T05:09:06.175Z,961.8400
2022-08-17T05:10:06.377Z,961.8000
2022-08-17T05:11:08.702Z,961.7800
2022-08-17T05:12:10.975Z,961.8000
2022-08-17T05:13:13.228Z,961.8200
2022-08-17T05:14:15.493Z,961.9200
2022-08-17T05:15:17.769Z,961.9600
2022-08-17T05:16:20.537Z,961.9800
2022-08-17T05:17:20.167Z,962.0400
2022-08-17T05:18:22.424Z,962.0600
2022-08-17T05:19:24.660Z,962.0400
2022-08-17T05:20:26.875Z,962.0200
2022-08-17T05:21:29.141Z,961.9800
2022-08-17T05:22:31.316Z,961.9800
2022-08-17T05:23:41.902Z,961.9400
2022-08-17T05:24:38.987Z,961.9200
2022-08-17T05:25:37.949Z,961.9200
2022-08-17T05:26:40.199Z,961.8400
2022-08-17T05:27:42.437Z,961.9600
2022-08-17T05:28:44.688Z,962.0000
2022-08-17T05:29:44.787Z,962.0200
2022-08-17T05:30:49.260Z,962.0400
2022-08-17T05:31:49.347Z,962.0200
2022-08-17T05:32:51.908Z,962.0400
2022-08-17T05:33:53.842Z,962.0800
2022-08-17T05:34:56.092Z,962.0600
2022-08-17T05:36:58.555Z,962.1000
2022-08-17T05:38:00.709Z,962.1200
2022-08-17T05:39:02.970Z,962.0600
2022-08-17T05:40:05.296Z,962.0200
2022-08-17T05:41:07.433Z,962.0000
2022-08-17T05:42:07.556Z,961.9800
2022-08-17T05:43:09.782Z,961.9600
2022-08-17T05:44:12.028Z,961.8400
2022-08-17T05:45:14.264Z,961.8000
2022-08-17T05:46:16.533Z,961.7600
2022-08-17T05:47:18.848Z,961.7400
2022-08-17T05:48:21.090Z,961.7400
2022-08-17T05:49:23.331Z,961.7600
2022-08-17T05:50:27.201Z,961.7800
2022-08-17T05:51:27.801Z,961.8200
2022-08-17T05:52:27.900Z,961.8000
2022-08-17T05:53:30.030Z,961.8000
2022-08-17T05:54:32.262Z,961.8000
2022-08-17T05:55:34.499Z,961.8200
2022-08-17T05:56:36.731Z,961.8000
2022-08-17T05:57:42.386Z,961.8200
2022-08-17T05:58:41.140Z,961.8400
2022-08-17T05:59:43.347Z,961.9200
2022-08-17T06:00:45.722Z,961.9400
2022-08-17T06:01:47.833Z,961.9400
2022-08-17T06:02:50.566Z,961.9400
2022-08-17T06:03:52.272Z,961.9600
2022-08-17T06:04:54.451Z,961.9600
2022-08-17T06:05:56.655Z,961.9600
2022-08-17T06:06:56.750Z,961.9400
2022-08-17T06:07:59.012Z,961.9400
2022-08-17T06:09:01.235Z,961.9600
2022-08-17T06:10:03.571Z,961.9800
2022-08-17T06:11:05.707Z,962.0200
2022-08-17T06:12:07.947Z,962.0400
2022-08-17T06:13:10.193Z,962.0200
2022-08-17T06:14:12.421Z,962.0000
2022-08-17T06:15:14.655Z,961.9800
2022-08-17T06:16:28.221Z,962.0200
2022-08-17T06:17:16.992Z,962.0000
2022-08-17T06:18:19.374Z,962.0000
2022-08-17T06:19:21.517Z,962.0400
2022-08-17T06:20:23.749Z,962.0600
2022-08-17T06:21:30.476Z,962.0800
2022-08-17T06:22:28.275Z,962.1200
2022-08-17T06:23:30.617Z,962.1000
2022-08-17T06:24:32.750Z,962.1200
2022-08-17T06:25:34.980Z,962.1000
2022-08-17T06:26:41.076Z,962.0800
2022-08-17T06:27:37.293Z,962.0600
2022-08-17T06:28:39.637Z,962.0200
2022-08-17T06:29:41.874Z,962.0200
2022-08-17T06:31:00.338Z,961.9800
2022-08-17T06:31:46.338Z,961.9400
2022-08-17T06:32:48.723Z,961.8400
2022-08-17T06:33:50.783Z,961.8400
2022-08-17T06:34:52.965Z,961.8000
2022-08-17T06:35:55.186Z,961.8000
2022-08-17T06:36:55.269Z,961.7800
2022-08-17T06:37:57.502Z,961.7200
2022-08-17T06:38:59.795Z,961.7000
2022-08-17T06:40:02.074Z,961.6800
2022-08-17T06:41:04.231Z,961.6600
2022-08-17T06:42:06.473Z,961.6600
2022-08-17T06:43:09.170Z,961.6800
2022-08-17T06:44:10.979Z,961.7000
2022-08-17T06:45:13.177Z,961.7400
2022-08-17T06:46:13.281Z,961.8000
2022-08-17T06:47:15.478Z,961.8400
2022-08-17T06:48:17.738Z,961.9400
2022-08-17T06:49:20.001Z,961.9600
2022-08-17T06:50:22.228Z,961.9600
2022-08-17T06:51:24.518Z,961.9400
2022-08-17T06:52:45.315Z,961.8200
2022-08-17T06:53:28.981Z,961.8200
2022-08-17T06:54:31.230Z,961.7800
2022-08-17T06:55:37.877Z,961.7800
2022-08-17T06:56:53.042Z,961.8000
2022-08-17T06:57:35.748Z,961.7800
2022-08-17T06:58:38.874Z,961.8000
2022-08-17T06:59:54.412Z,961.7800
2022-08-17T07:00:42.516Z,961.7800
2022-08-17T07:01:44.667Z,961.7600
2022-08-17T07:02:52.768Z,961.7600
2022-08-17T07:03:49.163Z,961.7600
2022-08-17T07:04:51.447Z,961.7200
2022-08-17T07:05:53.696Z,961.6800
2022-08-17T07:06:55.993Z,961.6600
2022-08-17T07:07:56.145Z,961.6600
2022-08-17T07:08:58.466Z,961.6800
2022-08-17T07:10:00.883Z,961.7000
2022-08-17T07:11:03.056Z,961.7400
2022-08-17T07:12:05.354Z,961.7400
2022-08-17T07:13:07.690Z,961.7200
2022-08-17T07:14:07.857Z,961.7000
2022-08-17T07:15:10.148Z,961.7000
2022-08-17T07:16:12.363Z,961.7200
2022-08-17T07:17:14.614Z,961.8200
2022-08-17T07:18:16.853Z,961.8400
2022-08-17T07:19:19.066Z,961.9400
2022-08-17T07:20:21.364Z,961.9600
2022-08-17T07:21:26.521Z,961.9400
2022-08-17T07:22:23.722Z,961.9200
2022-08-17T07:23:25.963Z,961.8200
2022-08-17T07:24:30.387Z,961.7800
2022-08-17T07:25:30.671Z,961.7400
2022-08-17T07:26:32.684Z,961.7200
2022-08-17T07:27:34.948Z,961.7200
2022-08-17T07:28:37.182Z,961.7200
2022-08-17T07:29:39.418Z,961.7600
2022-08-17T07:30:46.777Z,961.7200
2022-08-17T07:31:43.942Z,961.7000
2022-08-17T07:32:44.049Z,961.6800
2022-08-17T07:33:46.296Z,961.7000
2022-08-17T07:34:48.534Z,961.6800
2022-08-17T07:35:50.819Z,961.6600
2022-08-17T07:36:53.020Z,961.6400
2022-08-17T07:37:55.237Z,961.6400
2022-08-17T07:38:57.479Z,961.6600
2022-08-17T07:40:16.252Z,961.6400
2022-08-17T07:41:02.216Z,961.6200
2022-08-17T07:42:04.188Z,961.6400
2022-08-17T07:43:04.860Z,961.6200
2022-08-17T07:44:08.686Z,961.5800
2022-08-17T07:44:21.580Z,961.6200
2022-08-17T07:45:23.902Z,961.6000
2022-08-17T07:46:26.149Z,961.6400
2022-08-17T07:47:28.439Z,961.6800
2022-08-17T07:48:30.680Z,961.7000
2022-08-17T07:49:30.775Z,961.6800
2022-08-17T07:50:33.085Z,961.6600
2022-08-17T07:51:35.387Z,961.6000
2022-08-17T07:52:50.438Z,961.5300
2022-08-17T07:53:40.009Z,961.5100
2022-08-17T07:54:42.276Z,961.5400
2022-08-17T07:55:44.541Z,961.5600
2022-08-17T07:56:46.907Z,961.5300
2022-08-17T07:57:47.043Z,961.5100
2022-08-17T07:58:49.238Z,961.4900
2022-08-17T07:59:51.498Z,961.4700
2022-08-17T08:00:53.743Z,961.4700
2022-08-17T08:01:57.391Z,961.4300
2022-08-17T08:02:58.329Z,961.4500
2022-08-17T08:04:00.636Z,961.4500
2022-08-17T08:05:01.857Z,961.4500
2022-08-17T08:06:03.103Z,961.4900
2022-08-17T08:07:05.618Z,961.5100
2022-08-17T08:08:07.595Z,961.5400
2022-08-17T08:09:09.869Z,961.5400
2022-08-17T08:10:12.168Z,961.5600
2022-08-17T08:11:14.468Z,961.5800
2022-08-17T08:12:15.920Z,961.5600
2022-08-17T08:13:16.934Z,961.5600
2022-08-17T08:14:19.226Z,961.5800
2022-08-17T08:15:21.451Z,961.5600
2022-08-17T08:16:23.704Z,961.5600
2022-08-17T08:17:25.961Z,961.6000
2022-08-17T08:18:54.690Z,961.5800
2022-08-17T08:19:30.405Z,961.5600
2022-08-17T08:20:50.886Z,961.5800
2022-08-17T08:21:32.773Z,961.6000
2022-08-17T08:22:35.010Z,961.6200
2022-08-17T08:23:37.294Z,961.6200
2022-08-17T08:24:39.581Z,961.6400
2022-08-17T08:25:41.935Z,961.6200
2022-08-17T08:26:44.142Z,961.6600
2022-08-17T08:27:46.565Z,961.7200
2022-08-17T08:28:46.580Z,961.7400
2022-08-17T08:29:48.890Z,961.7600
2022-08-17T08:30:51.210Z,961.7800
2022-08-17T08:31:53.499Z,961.8000
2022-08-17T08:32:57.290Z,961.8400
2022-08-17T08:33:58.087Z,961.9200
2022-08-17T08:35:01.471Z,961.9200
2022-08-17T08:36:00.465Z,961.8000
2022-08-17T08:37:15.911Z,961.8200
2022-08-17T08:38:05.061Z,961.8200
2022-08-17T08:39:07.321Z,961.8400
2022-08-17T08:40:09.749Z,961.9200
2022-08-17T08:41:12.000Z,961.9400
2022-08-17T08:42:14.288Z,961.9200
2022-08-17T08:43:14.505Z,961.8400
2022-08-17T08:44:16.776Z,961.8400
2022-08-17T08:45:19.111Z,961.8400
2022-08-17T08:46:21.396Z,961.8400
2022-08-17T08:47:23.703Z,961.8400
2022-08-17T08:48:55.717Z,961.8400
2022-08-17T08:49:59.135Z,961.9400
2022-08-17T08:50:37.260Z,961.9600
2022-08-17T08:51:28.564Z,962.0000
2022-08-17T08:52:33.000Z,962.0400
2022-08-17T08:53:33.201Z,962.0800
2022-08-17T08:54:35.419Z,962.1400
2022-08-17T08:55:37.696Z,962.1400
2022-08-17T08:56:49.690Z,962.1500
2022-08-17T08:57:42.287Z,962.1500
2022-08-17T08:58:44.716Z,962.1200
2022-08-17T08:59:44.821Z,962.1200
2022-08-17T09:00:47.007Z,962.1200
2022-08-17T09:01:49.313Z,962.1000
2022-08-17T09:02:51.508Z,962.1000
2022-08-17T09:03:53.984Z,962.0800
2022-08-17T09:05:14.045Z,962.0400
2022-08-17T09:05:58.218Z,962.0200
2022-08-17T09:07:00.470Z,962.0200
2022-08-17T09:08:02.709Z,962.0600
2022-08-17T09:09:02.850Z,962.0800
2022-08-17T09:10:05.078Z,962.1000
2022-08-17T09:11:07.351Z,962.0800
2022-08-17T09:12:09.571Z,962.0600
2022-08-17T09:13:11.821Z,962.0200
2022-08-17T09:14:21.669Z,962.0400
2022-08-17T09:15:16.331Z,962.0200
2022-08-17T09:16:18.578Z,962.0600
2022-08-17T09:17:20.828Z,962.0600
2022-08-17T09:19:00.699Z,962.1200
2022-08-17T09:19:23.470Z,962.1400
2022-08-17T09:20:28.154Z,962.1700
2022-08-17T09:21:27.725Z,962.1700
2022-08-17T09:22:29.979Z,962.1400
2022-08-17T09:23:32.223Z,962.1200
2022-08-17T09:24:34.498Z,962.0800
2022-08-17T09:25:36.726Z,962.0600
2022-08-17T09:26:39.004Z,962.0600
2022-08-17T09:27:41.277Z,962.0800
2022-08-17T09:28:43.485Z,962.1200
2022-08-17T09:29:45.741Z,962.1400
2022-08-17T09:30:48.004Z,962.1200
2022-08-17T09:31:50.273Z,962.0800
2022-08-17T09:32:52.535Z,962.1000
2022-08-17T09:33:54.793Z,962.0800
2022-08-17T09:34:57.132Z,962.0400
2022-08-17T09:35:57.211Z,962.0400
2022-08-17T09:36:59.466Z,962.0600
2022-08-17T09:38:01.773Z,962.0600
2022-08-17T09:39:04.103Z,962.0600
2022-08-17T09:40:06.497Z,962.0400
2022-08-17T09:41:08.684Z,962.0400
2022-08-17T09:42:10.973Z,962.0600
2022-08-17T09:43:11.078Z,962.0200
2022-08-17T09:44:22.978Z,962.0600
2022-08-17T09:45:15.678Z,962.0600
2022-08-17T09:46:17.758Z,962.0600
2022-08-17T09:47:19.975Z,962.0400
2022-08-17T09:48:22.200Z,962.0000
2022-08-17T09:49:25.393Z,962.0200
2022-08-17T09:50:55.344Z,962.0200
2022-08-17T09:51:28.898Z,962.0200
2022-08-17T09:52:31.113Z,962.0000
2022-08-17T09:53:33.359Z,962.0200
2022-08-17T09:54:39.007Z,962.0200
2022-08-17T09:55:35.732Z,962.0200
2022-08-17T09:56:42.312Z,962.0400
2022-08-17T09:57:40.227Z,962.0400
2022-08-17T09:58:44.569Z,962.0600
2022-08-17T09:59:44.684Z,962.1200
2022-08-17T10:00:47.055Z,962.1400
2022-08-17T10:01:49.152Z,962.1700
2022-08-17T10:02:51.390Z,962.1900
2022-08-17T10:03:51.457Z,962.1700
2022-08-17T10:04:53.697Z,962.1500
2022-08-17T10:05:56.510Z,962.1400
2022-08-17T10:06:58.179Z,962.1400
2022-08-17T10:08:00.441Z,962.1200
2022-08-17T10:09:02.696Z,962.1200
2022-08-17T10:10:04.955Z,962.1500
2022-08-17T10:11:07.283Z,962.1900
2022-08-17T10:12:09.527Z,962.2100
2022-08-17T10:13:11.834Z,962.2500
2022-08-17T10:14:35.981Z,962.2900
2022-08-17T10:15:14.730Z,962.2500
2022-08-17T10:16:16.587Z,962.2500
2022-08-17T10:17:18.869Z,962.3100
2022-08-17T10:18:21.167Z,962.3100
2022-08-17T10:19:23.477Z,962.2700
2022-08-17T10:20:23.626Z,962.2500
2022-08-17T10:21:25.964Z,962.2300
2022-08-17T10:22:34.710Z,962.2300
2022-08-17T10:23:30.527Z,962.1900
2022-08-17T10:24:32.824Z,962.1700
2022-08-17T10:25:53.535Z,962.1200
2022-08-17T10:26:40.367Z,962.1000
2022-08-17T10:27:37.586Z,962.0600
2022-08-17T10:28:39.896Z,962.0400
2022-08-17T10:29:47.342Z,962.0400
2022-08-17T10:30:44.408Z,962.0200
2022-08-17T10:31:46.688Z,962.0200
2022-08-17T10:32:46.685Z,962.0200
2022-08-17T10:33:46.751Z,962.0200
2022-08-17T10:34:48.978Z,962.0400
2022-08-17T10:35:51.211Z,962.0400
2022-08-17T10:36:53.521Z,962.0600
2022-08-17T10:37:55.741Z,962.0600
2022-08-17T10:38:57.999Z,962.1000
2022-08-17T10:40:00.352Z,962.1200
2022-08-17T10:41:02.538Z,962.1200
2022-08-17T10:42:04.882Z,962.1400
2022-08-17T10:43:04.976Z,962.1900
2022-08-17T10:44:37.959Z,962.2500
2022-08-17T10:45:09.488Z,962.2700
2022-08-17T10:46:30.634Z,962.3100
2022-08-17T10:47:14.174Z,962.3300
2022-08-17T10:48:16.328Z,962.3300
2022-08-17T10:49:18.614Z,962.3100
2022-08-17T10:50:20.878Z,962.3300
2022-08-17T10:51:21.029Z,962.3300
2022-08-17T10:52:25.084Z,962.3300
2022-08-17T10:53:25.624Z,962.3300
2022-08-17T10:54:27.908Z,962.3300
2022-08-17T10:55:30.174Z,962.3100
2022-08-17T10:56:32.517Z,962.3300
2022-08-17T10:57:34.857Z,962.3100
2022-08-17T10:58:34.970Z,962.3100
2022-08-17T10:59:37.267Z,962.2700
2022-08-17T11:00:39.593Z,962.2500
2022-08-17T11:01:41.829Z,962.2100
2022-08-17T11:02:44.244Z,962.1500
2022-08-17T11:03:46.401Z,962.1000
2022-08-17T11:04:48.627Z,962.0600
2022-08-17T11:05:48.785Z,962.0400
2022-08-17T11:06:51.046Z,962.0600
2022-08-17T11:07:53.585Z,962.0800
2022-08-17T11:08:55.655Z,962.0400
2022-08-17T11:09:57.924Z,962.0200
2022-08-17T11:11:00.207Z,962.0200
2022-08-17T11:12:02.541Z,962.0000
2022-08-17T11:13:02.987Z,961.9600
2022-08-17T11:14:05.049Z,961.9600
2022-08-17T11:15:07.333Z,962.0000
2022-08-17T11:16:09.600Z,962.0200
2022-08-17T11:17:11.871Z,962.0400
2022-08-17T11:18:14.175Z,962.0600
2022-08-17T11:19:14.296Z,962.0000
2022-08-17T11:20:16.607Z,961.9600
2022-08-17T11:21:18.935Z,961.9400
2022-08-17T11:22:21.264Z,961.9400
2022-08-17T11:23:23.621Z,961.8200
2022-08-17T11:24:25.909Z,961.8200
2022-08-17T11:25:26.093Z,961.8000
2022-08-17T11:26:28.416Z,961.7600
2022-08-17T11:27:30.710Z,961.7200
2022-08-17T11:28:33.004Z,961.7000
2022-08-17T11:29:35.310Z,961.6600
2022-08-17T11:30:37.603Z,961.6400
2022-08-17T11:31:39.718Z,961.6200
2022-08-17T11:32:38.963Z,961.6200
2022-08-17T11:33:12.349Z,961.6000
2022-08-17T11:34:14.654Z,961.6400
2022-08-17T11:35:16.890Z,961.6600
2022-08-17T11:36:19.220Z,961.7000
2022-08-17T11:37:21.446Z,961.7000
2022-08-17T11:38:21.501Z,961.7200
2022-08-17T11:39:23.834Z,961.7200
2022-08-17T11:40:26.058Z,961.6800
2022-08-17T11:41:28.308Z,961.6400
2022-08-17T11:42:30.533Z,961.6000
2022-08-17T11:43:32.778Z,961.5800
2022-08-17T11:44:35.052Z,961.6000
2022-08-17T11:45:37.282Z,961.6000
2022-08-17T11:46:39.515Z,961.5800
2022-08-17T11:47:41.754Z,961.5800
2022-08-17T11:48:41.843Z,961.5600
2022-08-17T11:49:44.076Z,961.5300
2022-08-17T11:50:46.253Z,961.4900
2022-08-17T11:51:48.455Z,961.5100
2022-08-17T11:52:50.674Z,961.4700
2022-08-17T11:54:08.639Z,961.4700
2022-08-17T11:55:03.632Z,961.4300
2022-08-17T11:55:57.404Z,961.4500
2022-08-17T11:56:59.664Z,961.4700
2022-08-17T11:58:01.979Z,961.4700
2022-08-17T11:59:04.130Z,961.4500
2022-08-17T12:00:06.437Z,961.4300
2022-08-17T12:01:06.496Z,961.3900
2022-08-17T12:02:08.724Z,961.2900
2022-08-17T12:03:11.030Z,961.2700
2022-08-17T12:04:13.291Z,961.2500
2022-08-17T12:05:15.493Z,961.2700
2022-08-17T12:06:17.767Z,961.2500
2022-08-17T12:07:20.008Z,961.2700
2022-08-17T12:08:22.282Z,961.2700
2022-08-17T12:09:22.405Z,961.3100
2022-08-17T12:10:24.689Z,961.3300